sensor_id;sensor_type;location;lat;lon;timestamp;temperature;humidity
24152;DHT22;12311;50.866;4.332;2024-03-25T00:00:28;5.20;99.90
24152;DHT22;12311;50.866;4.332;2024-03-25T00:02:55;5.10;99.90
24152;DHT22;12311;50.866;4.332;2024-03-25T00:05:20;5.10;99.90
24152;DHT22;12311;50.866;4.332;2024-03-25T00:07:51;5.10;99.90
24152;DHT22;12311;50.866;4.332;2024-03-25T00:10:17;5.10;99.90
24152;DHT22;12311;50.866;4.332;2024-03-25T00:12:43;5.10;99.90
24152;DHT22;12311;50.866;4.332;2024-03-25T00:15:09;5.10;99.90
24152;DHT22;12311;50.866;4.332;2024-03-25T00:17:34;5.10;99.90
24152;DHT22;12311;50.866;4.332;2024-03-25T00:20:00;5.10;99.90
24152;DHT22;12311;50.866;4.332;2024-03-25T00:22:26;5.10;99.90
24152;DHT22;12311;50.866;4.332;2024-03-25T00:24:52;5.10;99.90
24152;DHT22;12311;50.866;4.332;2024-03-25T00:27:18;5.10;99.90
24152;DHT22;12311;50.866;4.332;2024-03-25T00:29:44;5.10;99.90
24152;DHT22;12311;50.866;4.332;2024-03-25T00:32:10;5.10;99.90
24152;DHT22;12311;50.866;4.332;2024-03-25T00:34:36;5.10;99.90
24152;DHT22;12311;50.866;4.332;2024-03-25T00:37:02;5.10;99.90
24152;DHT22;12311;50.866;4.332;2024-03-25T00:39:29;5.10;99.90
24152;DHT22;12311;50.866;4.332;2024-03-25T00:41:58;5.00;99.90
24152;DHT22;12311;50.866;4.332;2024-03-25T00:44:23;5.10;99.90
24152;DHT22;12311;50.866;4.332;2024-03-25T00:46:50;5.10;99.90
24152;DHT22;12311;50.866;4.332;2024-03-25T00:49:15;5.10;99.90
24152;DHT22;12311;50.866;4.332;2024-03-25T00:51:41;5.10;99.90
24152;DHT22;12311;50.866;4.332;2024-03-25T00:54:06;5.10;99.90
24152;DHT22;12311;50.866;4.332;2024-03-25T00:56:32;5.10;99.90
24152;DHT22;12311;50.866;4.332;2024-03-25T00:58:58;5.00;99.90
24152;DHT22;12311;50.866;4.332;2024-03-25T01:01:28;5.00;99.90
24152;DHT22;12311;50.866;4.332;2024-03-25T01:03:54;5.10;99.90
24152;DHT22;12311;50.866;4.332;2024-03-25T01:06:19;5.00;99.90
24152;DHT22;12311;50.866;4.332;2024-03-25T01:08:45;5.00;99.90
24152;DHT22;12311;50.866;4.332;2024-03-25T01:11:11;5.00;99.90
24152;DHT22;12311;50.866;4.332;2024-03-25T01:13:36;5.00;99.90
24152;DHT22;12311;50.866;4.332;2024-03-25T01:16:02;5.00;99.90
24152;DHT22;12311;50.866;4.332;2024-03-25T01:18:27;5.00;99.90
24152;DHT22;12311;50.866;4.332;2024-03-25T01:20:53;5.00;99.90
24152;DHT22;12311;50.866;4.332;2024-03-25T01:23:20;5.00;99.90
24152;DHT22;12311;50.866;4.332;2024-03-25T01:25:45;5.00;99.90
24152;DHT22;12311;50.866;4.332;2024-03-25T01:28:11;5.00;99.90
24152;DHT22;12311;50.866;4.332;2024-03-25T01:30:37;5.00;99.90
24152;DHT22;12311;50.866;4.332;2024-03-25T01:33:05;5.00;99.90
24152;DHT22;12311;50.866;4.332;2024-03-25T01:35:31;5.00;99.90
24152;DHT22;12311;50.866;4.332;2024-03-25T01:37:56;5.00;99.90
24152;DHT22;12311;50.866;4.332;2024-03-25T01:40:23;4.90;99.90
24152;DHT22;12311;50.866;4.332;2024-03-25T01:43:02;5.00;99.90
24152;DHT22;12311;50.866;4.332;2024-03-25T01:45:33;4.90;99.90
24152;DHT22;12311;50.866;4.332;2024-03-25T01:48:10;4.90;99.90
24152;DHT22;12311;50.866;4.332;2024-03-25T01:50:41;5.00;99.90
24152;DHT22;12311;50.866;4.332;2024-03-25T01:53:08;5.00;99.90
24152;DHT22;12311;50.866;4.332;2024-03-25T01:55:35;5.10;99.90
24152;DHT22;12311;50.866;4.332;2024-03-25T01:58:05;5.00;99.90
24152;DHT22;12311;50.866;4.332;2024-03-25T02:00:31;5.00;99.90
24152;DHT22;12311;50.866;4.332;2024-03-25T02:02:58;5.00;99.90
24152;DHT22;12311;50.866;4.332;2024-03-25T02:05:23;5.10;99.90
24152;DHT22;12311;50.866;4.332;2024-03-25T02:07:49;5.20;99.90
24152;DHT22;12311;50.866;4.332;2024-03-25T02:10:16;5.10;99.90
24152;DHT22;12311;50.866;4.332;2024-03-25T02:12:42;5.10;99.90
24152;DHT22;12311;50.866;4.332;2024-03-25T02:15:09;5.00;99.90
24152;DHT22;12311;50.866;4.332;2024-03-25T02:17:36;5.00;99.90
24152;DHT22;12311;50.866;4.332;2024-03-25T02:20:02;4.90;99.90
24152;DHT22;12311;50.866;4.332;2024-03-25T02:22:29;5.00;99.90
24152;DHT22;12311;50.866;4.332;2024-03-25T02:24:56;5.00;99.90
24152;DHT22;12311;50.866;4.332;2024-03-25T02:27:24;5.00;99.90
24152;DHT22;12311;50.866;4.332;2024-03-25T02:29:50;5.00;99.90
24152;DHT22;12311;50.866;4.332;2024-03-25T02:32:16;4.90;99.90
24152;DHT22;12311;50.866;4.332;2024-03-25T02:34:46;4.90;99.90
24152;DHT22;12311;50.866;4.332;2024-03-25T02:37:13;4.90;99.90
24152;DHT22;12311;50.866;4.332;2024-03-25T02:39:39;4.90;99.90
24152;DHT22;12311;50.866;4.332;2024-03-25T02:42:04;4.90;99.90
24152;DHT22;12311;50.866;4.332;2024-03-25T02:44:33;4.90;99.90
24152;DHT22;12311;50.866;4.332;2024-03-25T02:47:00;4.90;99.90
24152;DHT22;12311;50.866;4.332;2024-03-25T02:49:26;4.90;99.90
24152;DHT22;12311;50.866;4.332;2024-03-25T02:51:52;4.90;99.90
24152;DHT22;12311;50.866;4.332;2024-03-25T02:54:17;4.90;99.90
24152;DHT22;12311;50.866;4.332;2024-03-25T02:56:44;4.80;99.90
24152;DHT22;12311;50.866;4.332;2024-03-25T02:59:10;4.80;99.90
24152;DHT22;12311;50.866;4.332;2024-03-25T03:01:35;4.80;99.90
24152;DHT22;12311;50.866;4.332;2024-03-25T03:04:01;4.80;99.90
24152;DHT22;12311;50.866;4.332;2024-03-25T03:06:27;4.80;99.90
24152;DHT22;12311;50.866;4.332;2024-03-25T03:08:52;4.80;99.90
24152;DHT22;12311;50.866;4.332;2024-03-25T03:11:18;4.80;99.90
24152;DHT22;12311;50.866;4.332;2024-03-25T03:13:43;4.80;99.90
24152;DHT22;12311;50.866;4.332;2024-03-25T03:16:09;4.80;99.90
24152;DHT22;12311;50.866;4.332;2024-03-25T03:18:35;4.80;99.90
24152;DHT22;12311;50.866;4.332;2024-03-25T03:21:00;4.90;99.90
24152;DHT22;12311;50.866;4.332;2024-03-25T03:23:26;5.00;99.90
24152;DHT22;12311;50.866;4.332;2024-03-25T03:25:52;4.90;99.90
24152;DHT22;12311;50.866;4.332;2024-03-25T03:28:18;5.10;99.90
24152;DHT22;12311;50.866;4.332;2024-03-25T03:30:44;5.10;99.90
24152;DHT22;12311;50.866;4.332;2024-03-25T03:33:09;5.10;99.90
24152;DHT22;12311;50.866;4.332;2024-03-25T03:35:35;5.10;99.90
24152;DHT22;12311;50.866;4.332;2024-03-25T03:38:01;5.10;99.90
24152;DHT22;12311;50.866;4.332;2024-03-25T03:40:29;5.10;99.90
24152;DHT22;12311;50.866;4.332;2024-03-25T03:42:55;5.10;99.90
24152;DHT22;12311;50.866;4.332;2024-03-25T03:45:23;5.10;99.90
24152;DHT22;12311;50.866;4.332;2024-03-25T03:47:49;5.20;99.90
24152;DHT22;12311;50.866;4.332;2024-03-25T03:50:15;5.30;99.90
24152;DHT22;12311;50.866;4.332;2024-03-25T03:52:41;5.40;99.90
24152;DHT22;12311;50.866;4.332;2024-03-25T03:55:07;5.40;99.90
24152;DHT22;12311;50.866;4.332;2024-03-25T03:57:32;5.40;99.90
24152;DHT22;12311;50.866;4.332;2024-03-25T03:59:58;5.60;99.90
24152;DHT22;12311;50.866;4.332;2024-03-25T04:02:25;5.60;99.90
24152;DHT22;12311;50.866;4.332;2024-03-25T04:04:51;5.60;99.90
24152;DHT22;12311;50.866;4.332;2024-03-25T04:07:17;5.60;99.90
24152;DHT22;12311;50.866;4.332;2024-03-25T04:09:43;5.60;99.90
24152;DHT22;12311;50.866;4.332;2024-03-25T04:12:09;5.70;99.90
24152;DHT22;12311;50.866;4.332;2024-03-25T04:14:34;5.70;99.90
24152;DHT22;12311;50.866;4.332;2024-03-25T04:17:00;5.70;99.90
24152;DHT22;12311;50.866;4.332;2024-03-25T04:19:26;5.70;99.90
24152;DHT22;12311;50.866;4.332;2024-03-25T04:21:53;5.70;99.90
24152;DHT22;12311;50.866;4.332;2024-03-25T04:24:19;5.70;99.90
24152;DHT22;12311;50.866;4.332;2024-03-25T04:26:45;5.70;99.90
24152;DHT22;12311;50.866;4.332;2024-03-25T04:29:11;5.70;99.90
24152;DHT22;12311;50.866;4.332;2024-03-25T04:31:37;5.70;99.90
24152;DHT22;12311;50.866;4.332;2024-03-25T04:34:03;5.70;99.90
24152;DHT22;12311;50.866;4.332;2024-03-25T04:36:30;5.70;99.90
24152;DHT22;12311;50.866;4.332;2024-03-25T04:38:56;5.70;99.90
24152;DHT22;12311;50.866;4.332;2024-03-25T04:41:22;5.70;99.90
24152;DHT22;12311;50.866;4.332;2024-03-25T04:43:48;5.70;99.90
24152;DHT22;12311;50.866;4.332;2024-03-25T04:46:14;5.70;99.90
24152;DHT22;12311;50.866;4.332;2024-03-25T04:48:39;5.70;99.90
24152;DHT22;12311;50.866;4.332;2024-03-25T04:51:06;5.70;99.90
24152;DHT22;12311;50.866;4.332;2024-03-25T04:53:31;5.70;99.90
24152;DHT22;12311;50.866;4.332;2024-03-25T04:55:57;5.70;99.90
24152;DHT22;12311;50.866;4.332;2024-03-25T04:58:23;5.70;99.90
24152;DHT22;12311;50.866;4.332;2024-03-25T05:00:49;5.70;99.90
24152;DHT22;12311;50.866;4.332;2024-03-25T05:03:14;5.70;99.90
24152;DHT22;12311;50.866;4.332;2024-03-25T05:05:40;5.60;99.90
24152;DHT22;12311;50.866;4.332;2024-03-25T05:08:06;5.70;99.90
24152;DHT22;12311;50.866;4.332;2024-03-25T05:10:32;5.80;99.90
24152;DHT22;12311;50.866;4.332;2024-03-25T05:12:57;5.80;99.90
24152;DHT22;12311;50.866;4.332;2024-03-25T05:15:23;5.80;99.90
24152;DHT22;12311;50.866;4.332;2024-03-25T05:17:48;5.80;99.90
24152;DHT22;12311;50.866;4.332;2024-03-25T05:20:14;5.80;99.90
24152;DHT22;12311;50.866;4.332;2024-03-25T05:22:40;5.70;99.90
24152;DHT22;12311;50.866;4.332;2024-03-25T05:25:06;5.70;99.90
24152;DHT22;12311;50.866;4.332;2024-03-25T05:27:31;5.70;99.90
24152;DHT22;12311;50.866;4.332;2024-03-25T05:29:57;5.70;99.90
24152;DHT22;12311;50.866;4.332;2024-03-25T05:32:22;5.80;99.90
24152;DHT22;12311;50.866;4.332;2024-03-25T05:34:48;5.80;99.90
24152;DHT22;12311;50.866;4.332;2024-03-25T05:37:14;5.70;99.90
24152;DHT22;12311;50.866;4.332;2024-03-25T05:39:40;5.70;99.90
24152;DHT22;12311;50.866;4.332;2024-03-25T05:42:05;5.70;99.90
24152;DHT22;12311;50.866;4.332;2024-03-25T05:44:31;5.70;99.90
24152;DHT22;12311;50.866;4.332;2024-03-25T05:46:57;5.70;99.90
24152;DHT22;12311;50.866;4.332;2024-03-25T05:49:23;5.80;99.90
24152;DHT22;12311;50.866;4.332;2024-03-25T05:51:48;5.80;99.90
24152;DHT22;12311;50.866;4.332;2024-03-25T05:54:14;5.80;99.90
24152;DHT22;12311;50.866;4.332;2024-03-25T05:56:40;5.80;99.90
24152;DHT22;12311;50.866;4.332;2024-03-25T05:59:05;5.80;99.90
24152;DHT22;12311;50.866;4.332;2024-03-25T06:01:31;5.90;99.90
24152;DHT22;12311;50.866;4.332;2024-03-25T06:03:57;6.00;99.90
24152;DHT22;12311;50.866;4.332;2024-03-25T06:06:23;6.00;99.90
24152;DHT22;12311;50.866;4.332;2024-03-25T06:08:49;6.00;99.90
24152;DHT22;12311;50.866;4.332;2024-03-25T06:11:16;6.00;99.90
24152;DHT22;12311;50.866;4.332;2024-03-25T06:13:45;6.00;99.90
24152;DHT22;12311;50.866;4.332;2024-03-25T06:16:13;6.10;99.90
24152;DHT22;12311;50.866;4.332;2024-03-25T06:18:38;6.20;99.90
24152;DHT22;12311;50.866;4.332;2024-03-25T06:21:05;6.20;99.90
24152;DHT22;12311;50.866;4.332;2024-03-25T06:23:31;6.20;99.90
24152;DHT22;12311;50.866;4.332;2024-03-25T06:25:57;6.30;99.90
24152;DHT22;12311;50.866;4.332;2024-03-25T06:28:23;6.30;99.90
24152;DHT22;12311;50.866;4.332;2024-03-25T06:30:49;6.30;99.90
24152;DHT22;12311;50.866;4.332;2024-03-25T06:33:34;6.30;99.90
24152;DHT22;12311;50.866;4.332;2024-03-25T06:36:19;6.40;99.90
24152;DHT22;12311;50.866;4.332;2024-03-25T06:38:45;6.40;99.90
24152;DHT22;12311;50.866;4.332;2024-03-25T06:41:10;6.50;99.90
24152;DHT22;12311;50.866;4.332;2024-03-25T06:43:37;6.50;99.90
24152;DHT22;12311;50.866;4.332;2024-03-25T06:46:06;6.60;99.90
24152;DHT22;12311;50.866;4.332;2024-03-25T06:48:35;6.60;99.90
24152;DHT22;12311;50.866;4.332;2024-03-25T06:51:02;6.60;99.90
24152;DHT22;12311;50.866;4.332;2024-03-25T06:53:30;6.60;99.90
24152;DHT22;12311;50.866;4.332;2024-03-25T06:55:58;6.60;99.90
24152;DHT22;12311;50.866;4.332;2024-03-25T06:58:25;6.70;99.90
24152;DHT22;12311;50.866;4.332;2024-03-25T07:00:51;6.70;99.90
24152;DHT22;12311;50.866;4.332;2024-03-25T07:03:19;6.70;99.90
24152;DHT22;12311;50.866;4.332;2024-03-25T07:05:45;6.80;99.90
24152;DHT22;12311;50.866;4.332;2024-03-25T07:08:12;6.90;99.90
24152;DHT22;12311;50.866;4.332;2024-03-25T07:10:38;6.90;99.90
24152;DHT22;12311;50.866;4.332;2024-03-25T07:13:04;6.90;99.90
24152;DHT22;12311;50.866;4.332;2024-03-25T07:15:31;7.00;99.90
24152;DHT22;12311;50.866;4.332;2024-03-25T07:17:56;6.90;99.90
24152;DHT22;12311;50.866;4.332;2024-03-25T07:20:23;6.90;99.90
24152;DHT22;12311;50.866;4.332;2024-03-25T07:22:49;7.00;99.90
24152;DHT22;12311;50.866;4.332;2024-03-25T07:25:14;7.00;99.90
24152;DHT22;12311;50.866;4.332;2024-03-25T07:27:40;7.10;99.90
24152;DHT22;12311;50.866;4.332;2024-03-25T07:30:07;7.10;99.90
24152;DHT22;12311;50.866;4.332;2024-03-25T07:32:34;7.10;99.90
24152;DHT22;12311;50.866;4.332;2024-03-25T07:35:00;7.10;99.90
24152;DHT22;12311;50.866;4.332;2024-03-25T07:37:25;7.20;99.90
24152;DHT22;12311;50.866;4.332;2024-03-25T07:39:52;7.20;99.90
24152;DHT22;12311;50.866;4.332;2024-03-25T07:42:18;7.30;99.90
24152;DHT22;12311;50.866;4.332;2024-03-25T07:44:43;7.40;99.90
24152;DHT22;12311;50.866;4.332;2024-03-25T07:47:09;7.40;99.90
24152;DHT22;12311;50.866;4.332;2024-03-25T07:49:35;7.40;99.90
24152;DHT22;12311;50.866;4.332;2024-03-25T07:52:01;7.40;99.90
24152;DHT22;12311;50.866;4.332;2024-03-25T07:54:27;7.40;99.90
24152;DHT22;12311;50.866;4.332;2024-03-25T07:56:53;7.40;99.90
24152;DHT22;12311;50.866;4.332;2024-03-25T07:59:18;7.40;99.90
24152;DHT22;12311;50.866;4.332;2024-03-25T08:01:44;7.50;99.90
24152;DHT22;12311;50.866;4.332;2024-03-25T08:04:10;7.50;99.90
24152;DHT22;12311;50.866;4.332;2024-03-25T08:06:36;7.60;99.90
24152;DHT22;12311;50.866;4.332;2024-03-25T08:09:01;7.60;99.90
24152;DHT22;12311;50.866;4.332;2024-03-25T08:11:30;7.70;99.90
24152;DHT22;12311;50.866;4.332;2024-03-25T08:13:56;7.80;99.90
24152;DHT22;12311;50.866;4.332;2024-03-25T08:16:22;8.00;99.90
24152;DHT22;12311;50.866;4.332;2024-03-25T08:18:47;8.00;99.90
24152;DHT22;12311;50.866;4.332;2024-03-25T08:21:13;8.10;99.90
24152;DHT22;12311;50.866;4.332;2024-03-25T08:23:39;8.10;99.90
24152;DHT22;12311;50.866;4.332;2024-03-25T08:26:05;8.20;99.90
24152;DHT22;12311;50.866;4.332;2024-03-25T08:28:32;8.30;99.90
24152;DHT22;12311;50.866;4.332;2024-03-25T08:30:58;8.30;99.90
24152;DHT22;12311;50.866;4.332;2024-03-25T08:33:24;8.30;99.90
24152;DHT22;12311;50.866;4.332;2024-03-25T08:35:49;8.40;99.90
24152;DHT22;12311;50.866;4.332;2024-03-25T08:38:15;8.30;99.90
24152;DHT22;12311;50.866;4.332;2024-03-25T08:40:40;8.30;99.90
24152;DHT22;12311;50.866;4.332;2024-03-25T08:43:06;8.30;99.90
24152;DHT22;12311;50.866;4.332;2024-03-25T08:45:32;8.30;99.90
24152;DHT22;12311;50.866;4.332;2024-03-25T08:47:58;8.30;99.90
24152;DHT22;12311;50.866;4.332;2024-03-25T08:50:24;8.40;99.90
24152;DHT22;12311;50.866;4.332;2024-03-25T08:52:49;8.40;99.90
24152;DHT22;12311;50.866;4.332;2024-03-25T08:55:15;8.40;99.90
24152;DHT22;12311;50.866;4.332;2024-03-25T08:57:41;8.50;99.90
24152;DHT22;12311;50.866;4.332;2024-03-25T09:00:07;8.70;99.90
24152;DHT22;12311;50.866;4.332;2024-03-25T09:02:38;8.80;99.90
24152;DHT22;12311;50.866;4.332;2024-03-25T09:05:04;8.90;99.90
24152;DHT22;12311;50.866;4.332;2024-03-25T09:07:34;8.90;99.90
24152;DHT22;12311;50.866;4.332;2024-03-25T09:09:59;9.00;99.90
24152;DHT22;12311;50.866;4.332;2024-03-25T09:12:44;9.20;99.90
24152;DHT22;12311;50.866;4.332;2024-03-25T09:15:10;9.30;99.90
24152;DHT22;12311;50.866;4.332;2024-03-25T09:17:36;9.30;99.90
24152;DHT22;12311;50.866;4.332;2024-03-25T09:20:02;9.50;99.90
24152;DHT22;12311;50.866;4.332;2024-03-25T09:22:32;9.60;99.90
24152;DHT22;12311;50.866;4.332;2024-03-25T09:24:58;9.80;99.90
24152;DHT22;12311;50.866;4.332;2024-03-25T09:27:23;10.00;99.90
24152;DHT22;12311;50.866;4.332;2024-03-25T09:29:50;10.20;99.90
24152;DHT22;12311;50.866;4.332;2024-03-25T09:32:16;10.20;99.90
24152;DHT22;12311;50.866;4.332;2024-03-25T09:34:42;10.20;99.90
24152;DHT22;12311;50.866;4.332;2024-03-25T09:37:08;10.20;99.90
24152;DHT22;12311;50.866;4.332;2024-03-25T09:39:33;10.10;99.90
24152;DHT22;12311;50.866;4.332;2024-03-25T09:42:01;10.20;99.90
24152;DHT22;12311;50.866;4.332;2024-03-25T09:44:32;10.20;99.90
24152;DHT22;12311;50.866;4.332;2024-03-25T09:46:58;10.40;99.90
24152;DHT22;12311;50.866;4.332;2024-03-25T09:49:25;10.50;99.90
24152;DHT22;12311;50.866;4.332;2024-03-25T09:51:52;10.50;99.90
24152;DHT22;12311;50.866;4.332;2024-03-25T09:54:18;10.60;99.90
24152;DHT22;12311;50.866;4.332;2024-03-25T09:56:43;10.60;99.90
24152;DHT22;12311;50.866;4.332;2024-03-25T09:59:10;10.80;99.90
24152;DHT22;12311;50.866;4.332;2024-03-25T10:01:36;10.90;99.90
24152;DHT22;12311;50.866;4.332;2024-03-25T10:04:01;10.80;99.90
24152;DHT22;12311;50.866;4.332;2024-03-25T10:06:28;10.60;98.80
24152;DHT22;12311;50.866;4.332;2024-03-25T10:08:54;10.70;99.90
24152;DHT22;12311;50.866;4.332;2024-03-25T10:11:19;10.90;99.90
24152;DHT22;12311;50.866;4.332;2024-03-25T10:13:45;11.10;99.90
24152;DHT22;12311;50.866;4.332;2024-03-25T10:16:11;11.30;98.70
24152;DHT22;12311;50.866;4.332;2024-03-25T10:18:37;11.60;99.10
24152;DHT22;12311;50.866;4.332;2024-03-25T10:21:02;12.00;97.40
24152;DHT22;12311;50.866;4.332;2024-03-25T10:23:29;12.30;95.50
24152;DHT22;12311;50.866;4.332;2024-03-25T10:25:55;12.40;87.30
24152;DHT22;12311;50.866;4.332;2024-03-25T10:28:21;12.40;79.90
24152;DHT22;12311;50.866;4.332;2024-03-25T10:30:47;12.50;71.30
24152;DHT22;12311;50.866;4.332;2024-03-25T10:33:13;12.60;72.40
24152;DHT22;12311;50.866;4.332;2024-03-25T10:35:40;12.90;56.50
24152;DHT22;12311;50.866;4.332;2024-03-25T10:38:07;12.80;47.20
24152;DHT22;12311;50.866;4.332;2024-03-25T10:40:34;13.10;52.50
24152;DHT22;12311;50.866;4.332;2024-03-25T10:43:03;13.00;27.30
24152;DHT22;12311;50.866;4.332;2024-03-25T10:45:36;12.90;36.70
24152;DHT22;12311;50.866;4.332;2024-03-25T10:48:12;13.10;35.60
24152;DHT22;12311;50.866;4.332;2024-03-25T10:50:39;13.30;33.40
24152;DHT22;12311;50.866;4.332;2024-03-25T10:53:08;13.60;13.50
24152;DHT22;12311;50.866;4.332;2024-03-25T10:55:35;13.50;12.00
24152;DHT22;12311;50.866;4.332;2024-03-25T10:58:02;13.70;1.00
24152;DHT22;12311;50.866;4.332;2024-03-25T11:00:29;14.00;1.00
24152;DHT22;12311;50.866;4.332;2024-03-25T11:02:55;14.20;1.00
24152;DHT22;12311;50.866;4.332;2024-03-25T11:05:22;14.30;1.00
24152;DHT22;12311;50.866;4.332;2024-03-25T11:07:48;14.30;1.00
24152;DHT22;12311;50.866;4.332;2024-03-25T11:10:14;14.20;1.00
24152;DHT22;12311;50.866;4.332;2024-03-25T11:12:41;14.10;1.00
24152;DHT22;12311;50.866;4.332;2024-03-25T11:15:08;14.30;1.00
24152;DHT22;12311;50.866;4.332;2024-03-25T11:17:34;13.80;1.00
24152;DHT22;12311;50.866;4.332;2024-03-25T11:20:15;13.70;1.00
24152;DHT22;12311;50.866;4.332;2024-03-25T11:22:51;14.00;1.00
24152;DHT22;12311;50.866;4.332;2024-03-25T11:25:17;14.20;1.00
24152;DHT22;12311;50.866;4.332;2024-03-25T11:27:44;14.20;1.00
24152;DHT22;12311;50.866;4.332;2024-03-25T11:30:11;14.60;1.00
24152;DHT22;12311;50.866;4.332;2024-03-25T11:32:54;14.80;1.00
24152;DHT22;12311;50.866;4.332;2024-03-25T11:35:20;14.70;1.00
24152;DHT22;12311;50.866;4.332;2024-03-25T11:37:46;14.80;1.00
24152;DHT22;12311;50.866;4.332;2024-03-25T11:40:13;15.30;1.00
24152;DHT22;12311;50.866;4.332;2024-03-25T11:42:40;15.30;1.00
24152;DHT22;12311;50.866;4.332;2024-03-25T11:45:07;15.30;1.00
24152;DHT22;12311;50.866;4.332;2024-03-25T11:47:33;15.30;1.00
24152;DHT22;12311;50.866;4.332;2024-03-25T11:49:59;15.10;1.00
24152;DHT22;12311;50.866;4.332;2024-03-25T11:52:30;15.30;1.00
24152;DHT22;12311;50.866;4.332;2024-03-25T11:54:56;15.30;1.00
24152;DHT22;12311;50.866;4.332;2024-03-25T11:57:22;15.40;1.00
24152;DHT22;12311;50.866;4.332;2024-03-25T11:59:48;15.50;1.00
24152;DHT22;12311;50.866;4.332;2024-03-25T12:02:18;15.60;1.00
24152;DHT22;12311;50.866;4.332;2024-03-25T12:04:44;15.80;1.00
24152;DHT22;12311;50.866;4.332;2024-03-25T12:07:11;16.50;1.00
24152;DHT22;12311;50.866;4.332;2024-03-25T12:09:37;16.00;99.90
24152;DHT22;12311;50.866;4.332;2024-03-25T12:12:21;15.20;99.90
24152;DHT22;12311;50.866;4.332;2024-03-25T12:14:48;14.70;1.00
24152;DHT22;12311;50.866;4.332;2024-03-25T12:17:14;14.80;1.00
24152;DHT22;12311;50.866;4.332;2024-03-25T12:19:40;14.30;1.00
24152;DHT22;12311;50.866;4.332;2024-03-25T12:22:07;14.30;1.00
24152;DHT22;12311;50.866;4.332;2024-03-25T12:24:33;14.20;1.00
24152;DHT22;12311;50.866;4.332;2024-03-25T12:27:00;14.20;1.00
24152;DHT22;12311;50.866;4.332;2024-03-25T12:29:26;14.40;1.00
24152;DHT22;12311;50.866;4.332;2024-03-25T12:31:55;14.70;1.00
24152;DHT22;12311;50.866;4.332;2024-03-25T12:34:21;14.70;1.00
24152;DHT22;12311;50.866;4.332;2024-03-25T12:36:48;15.40;1.00
24152;DHT22;12311;50.866;4.332;2024-03-25T12:39:20;15.30;1.00
24152;DHT22;12311;50.866;4.332;2024-03-25T12:41:46;15.00;1.00
24152;DHT22;12311;50.866;4.332;2024-03-25T12:44:14;15.20;1.00
24152;DHT22;12311;50.866;4.332;2024-03-25T12:46:40;15.60;1.00
24152;DHT22;12311;50.866;4.332;2024-03-25T12:49:06;15.60;1.00
24152;DHT22;12311;50.866;4.332;2024-03-25T12:51:32;15.30;1.00
24152;DHT22;12311;50.866;4.332;2024-03-25T12:53:58;15.00;1.00
24152;DHT22;12311;50.866;4.332;2024-03-25T12:56:24;14.60;1.00
24152;DHT22;12311;50.866;4.332;2024-03-25T12:58:50;15.00;1.00
24152;DHT22;12311;50.866;4.332;2024-03-25T13:01:16;15.70;1.00
24152;DHT22;12311;50.866;4.332;2024-03-25T13:03:42;15.70;99.90
24152;DHT22;12311;50.866;4.332;2024-03-25T13:06:07;15.60;99.90
24152;DHT22;12311;50.866;4.332;2024-03-25T13:08:33;15.80;99.90
24152;DHT22;12311;50.866;4.332;2024-03-25T13:10:59;16.70;99.90
24152;DHT22;12311;50.866;4.332;2024-03-25T13:13:25;17.60;99.90
24152;DHT22;12311;50.866;4.332;2024-03-25T13:15:51;17.70;73.10
24152;DHT22;12311;50.866;4.332;2024-03-25T13:18:16;17.10;99.90
24152;DHT22;12311;50.866;4.332;2024-03-25T13:20:43;16.70;99.90
24152;DHT22;12311;50.866;4.332;2024-03-25T13:23:09;16.30;99.90
24152;DHT22;12311;50.866;4.332;2024-03-25T13:25:35;15.90;1.00
24152;DHT22;12311;50.866;4.332;2024-03-25T13:28:01;15.90;99.90
24152;DHT22;12311;50.866;4.332;2024-03-25T13:30:26;15.70;8.80
24152;DHT22;12311;50.866;4.332;2024-03-25T13:32:52;16.40;33.80
24152;DHT22;12311;50.866;4.332;2024-03-25T13:35:18;17.00;1.00
24152;DHT22;12311;50.866;4.332;2024-03-25T13:37:44;17.30;99.90
24152;DHT22;12311;50.866;4.332;2024-03-25T13:40:10;16.70;1.00
24152;DHT22;12311;50.866;4.332;2024-03-25T13:42:37;16.90;1.00
24152;DHT22;12311;50.866;4.332;2024-03-25T13:45:04;16.90;99.90
24152;DHT22;12311;50.866;4.332;2024-03-25T13:47:30;16.80;99.90
24152;DHT22;12311;50.866;4.332;2024-03-25T13:50:05;17.20;99.90
24152;DHT22;12311;50.866;4.332;2024-03-25T13:52:34;17.20;1.00
24152;DHT22;12311;50.866;4.332;2024-03-25T13:55:01;17.20;1.00
24152;DHT22;12311;50.866;4.332;2024-03-25T13:57:26;17.70;1.00
24152;DHT22;12311;50.866;4.332;2024-03-25T13:59:52;17.60;99.90
24152;DHT22;12311;50.866;4.332;2024-03-25T14:02:18;18.00;99.90
24152;DHT22;12311;50.866;4.332;2024-03-25T14:04:43;18.70;1.00
24152;DHT22;12311;50.866;4.332;2024-03-25T14:07:09;18.80;99.90
24152;DHT22;12311;50.866;4.332;2024-03-25T14:09:35;18.20;1.00
24152;DHT22;12311;50.866;4.332;2024-03-25T14:12:00;17.60;1.00
24152;DHT22;12311;50.866;4.332;2024-03-25T14:14:26;18.30;99.90
24152;DHT22;12311;50.866;4.332;2024-03-25T14:16:52;18.50;99.90
24152;DHT22;12311;50.866;4.332;2024-03-25T14:19:17;18.20;1.00
24152;DHT22;12311;50.866;4.332;2024-03-25T14:21:43;18.10;1.00
24152;DHT22;12311;50.866;4.332;2024-03-25T14:24:09;17.80;1.00
24152;DHT22;12311;50.866;4.332;2024-03-25T14:26:35;17.90;54.60
24152;DHT22;12311;50.866;4.332;2024-03-25T14:29:00;17.30;1.00
24152;DHT22;12311;50.866;4.332;2024-03-25T14:31:27;16.40;1.00
24152;DHT22;12311;50.866;4.332;2024-03-25T14:33:54;16.40;1.00
24152;DHT22;12311;50.866;4.332;2024-03-25T14:36:20;16.70;99.90
24152;DHT22;12311;50.866;4.332;2024-03-25T14:38:46;16.80;99.90
24152;DHT22;12311;50.866;4.332;2024-03-25T14:41:12;17.10;99.90
24152;DHT22;12311;50.866;4.332;2024-03-25T14:43:38;17.50;99.90
24152;DHT22;12311;50.866;4.332;2024-03-25T14:46:04;18.10;1.00
24152;DHT22;12311;50.866;4.332;2024-03-25T14:48:30;18.00;99.90
24152;DHT22;12311;50.866;4.332;2024-03-25T14:50:55;17.70;99.90
24152;DHT22;12311;50.866;4.332;2024-03-25T14:53:21;18.30;1.00
24152;DHT22;12311;50.866;4.332;2024-03-25T14:55:47;18.30;99.90
24152;DHT22;12311;50.866;4.332;2024-03-25T14:58:13;18.20;99.90
24152;DHT22;12311;50.866;4.332;2024-03-25T15:00:38;18.30;1.00
24152;DHT22;12311;50.866;4.332;2024-03-25T15:03:04;18.90;99.90
24152;DHT22;12311;50.866;4.332;2024-03-25T15:05:30;18.90;99.90
24152;DHT22;12311;50.866;4.332;2024-03-25T15:07:56;18.90;82.80
24152;DHT22;12311;50.866;4.332;2024-03-25T15:10:21;18.80;21.50
24152;DHT22;12311;50.866;4.332;2024-03-25T15:12:47;18.70;1.00
24152;DHT22;12311;50.866;4.332;2024-03-25T15:15:12;18.30;1.00
24152;DHT22;12311;50.866;4.332;2024-03-25T15:17:38;18.50;11.40
24152;DHT22;12311;50.866;4.332;2024-03-25T15:20:04;17.90;1.00
24152;DHT22;12311;50.866;4.332;2024-03-25T15:22:33;17.50;1.00
24152;DHT22;12311;50.866;4.332;2024-03-25T15:24:59;17.10;99.90
24152;DHT22;12311;50.866;4.332;2024-03-25T15:27:25;16.60;99.90
24152;DHT22;12311;50.866;4.332;2024-03-25T15:29:50;16.20;1.00
24152;DHT22;12311;50.866;4.332;2024-03-25T15:32:16;16.20;1.00
24152;DHT22;12311;50.866;4.332;2024-03-25T15:34:42;16.80;99.90
24152;DHT22;12311;50.866;4.332;2024-03-25T15:37:08;16.90;1.00